sensor_id;sensor_type;location;lat;lon;timestamp;pressure;altitude;pressure_sealevel;temperature;humidity
77450;BME280;66536;53.150;18.172;2023-07-24T00:00:30;100375.98;;;17.20;63.91
77450;BME280;66536;53.150;18.172;2023-07-24T00:03:17;100377.68;;;17.15;64.03
77450;BME280;66536;53.150;18.172;2023-07-24T00:05:44;100377.99;;;17.11;64.26
77450;BME280;66536;53.150;18.172;2023-07-24T00:08:11;100378.02;;;17.07;64.32
77450;BME280;66536;53.150;18.172;2023-07-24T00:10:38;100379.15;;;17.03;64.54
77450;BME280;66536;53.150;18.172;2023-07-24T00:13:05;100377.25;;;17.00;64.53
77450;BME280;66536;53.150;18.172;2023-07-24T00:15:32;100379.65;;;16.97;64.43
77450;BME280;66536;53.150;18.172;2023-07-24T00:17:58;100378.02;;;16.94;64.60
77450;BME280;66536;53.150;18.172;2023-07-24T00:20:26;100380.88;;;16.92;64.59
77450;BME280;66536;53.150;18.172;2023-07-24T00:22:54;100376.70;;;16.90;64.66
77450;BME280;66536;53.150;18.172;2023-07-24T00:25:21;100377.25;;;16.87;64.88
77450;BME280;66536;53.150;18.172;2023-07-24T00:27:48;100372.16;;;16.84;64.92
77450;BME280;66536;53.150;18.172;2023-07-24T00:30:16;100374.08;;;16.80;64.91
77450;BME280;66536;53.150;18.172;2023-07-24T00:32:43;100374.70;;;16.78;65.07
77450;BME280;66536;53.150;18.172;2023-07-24T00:35:11;100377.04;;;16.74;64.93
77450;BME280;66536;53.150;18.172;2023-07-24T00:37:39;100377.37;;;16.71;65.09
77450;BME280;66536;53.150;18.172;2023-07-24T00:40:08;100378.89;;;16.69;64.87
77450;BME280;66536;53.150;18.172;2023-07-24T00:42:36;100373.43;;;16.66;65.17
77450;BME280;66536;53.150;18.172;2023-07-24T00:45:04;100374.02;;;16.62;65.23
77450;BME280;66536;53.150;18.172;2023-07-24T00:47:32;100380.92;;;16.60;65.45
77450;BME280;66536;53.150;18.172;2023-07-24T00:49:59;100384.04;;;16.57;66.09
77450;BME280;66536;53.150;18.172;2023-07-24T00:52:27;100382.25;;;16.54;66.34
77450;BME280;66536;53.150;18.172;2023-07-24T00:54:54;100378.04;;;16.51;66.31
77450;BME280;66536;53.150;18.172;2023-07-24T00:57:22;100381.95;;;16.48;66.19
77450;BME280;66536;53.150;18.172;2023-07-24T00:59:49;100380.86;;;16.46;66.28
77450;BME280;66536;53.150;18.172;2023-07-24T01:02:16;100384.40;;;16.45;66.45
77450;BME280;66536;53.150;18.172;2023-07-24T01:04:44;100379.10;;;16.42;66.49
77450;BME280;66536;53.150;18.172;2023-07-24T01:07:10;100376.16;;;16.41;66.44
77450;BME280;66536;53.150;18.172;2023-07-24T01:09:37;100378.84;;;16.40;66.18
77450;BME280;66536;53.150;18.172;2023-07-24T01:12:19;100377.57;;;16.39;66.04
77450;BME280;66536;53.150;18.172;2023-07-24T01:14:54;100382.52;;;16.38;65.99
77450;BME280;66536;53.150;18.172;2023-07-24T01:17:24;100385.77;;;16.37;65.77
77450;BME280;66536;53.150;18.172;2023-07-24T01:19:55;100386.73;;;16.35;65.73
77450;BME280;66536;53.150;18.172;2023-07-24T01:22:38;100382.48;;;16.33;65.55
77450;BME280;66536;53.150;18.172;2023-07-24T01:25:28;100382.07;;;16.32;65.88
77450;BME280;66536;53.150;18.172;2023-07-24T01:27:57;100384.19;;;16.29;66.15
77450;BME280;66536;53.150;18.172;2023-07-24T01:30:25;100383.54;;;16.26;66.38
77450;BME280;66536;53.150;18.172;2023-07-24T01:32:52;100378.72;;;16.24;66.84
77450;BME280;66536;53.150;18.172;2023-07-24T01:35:20;100379.64;;;16.21;67.78
77450;BME280;66536;53.150;18.172;2023-07-24T01:37:47;100374.12;;;16.18;68.52
77450;BME280;66536;53.150;18.172;2023-07-24T01:40:16;100374.90;;;16.15;69.28
77450;BME280;66536;53.150;18.172;2023-07-24T01:42:44;100372.13;;;16.11;69.84
77450;BME280;66536;53.150;18.172;2023-07-24T01:45:10;100369.55;;;16.07;70.27
77450;BME280;66536;53.150;18.172;2023-07-24T01:47:40;100373.95;;;16.03;70.62
77450;BME280;66536;53.150;18.172;2023-07-24T01:50:07;100366.39;;;15.99;70.84
77450;BME280;66536;53.150;18.172;2023-07-24T01:52:36;100365.85;;;15.95;70.85
77450;BME280;66536;53.150;18.172;2023-07-24T01:55:02;100362.27;;;15.90;71.02
77450;BME280;66536;53.150;18.172;2023-07-24T01:57:29;100362.02;;;15.86;71.20
77450;BME280;66536;53.150;18.172;2023-07-24T01:59:56;100357.90;;;15.82;71.20
77450;BME280;66536;53.150;18.172;2023-07-24T02:02:23;100355.84;;;15.79;71.58
77450;BME280;66536;53.150;18.172;2023-07-24T02:04:51;100355.30;;;15.77;71.64
77450;BME280;66536;53.150;18.172;2023-07-24T02:07:18;100357.46;;;15.74;71.79
77450;BME280;66536;53.150;18.172;2023-07-24T02:09:45;100364.96;;;15.71;71.99
77450;BME280;66536;53.150;18.172;2023-07-24T02:12:15;100361.44;;;15.68;72.11
77450;BME280;66536;53.150;18.172;2023-07-24T02:14:42;100368.38;;;15.64;72.16
77450;BME280;66536;53.150;18.172;2023-07-24T02:17:08;100367.66;;;15.59;72.17
77450;BME280;66536;53.150;18.172;2023-07-24T02:19:35;100369.45;;;15.56;72.23
77450;BME280;66536;53.150;18.172;2023-07-24T02:22:02;100363.27;;;15.54;72.26
77450;BME280;66536;53.150;18.172;2023-07-24T02:24:48;100365.23;;;15.51;72.21
77450;BME280;66536;53.150;18.172;2023-07-24T02:27:26;100366.66;;;15.48;72.31
77450;BME280;66536;53.150;18.172;2023-07-24T02:29:55;100366.16;;;15.46;72.42
77450;BME280;66536;53.150;18.172;2023-07-24T02:32:25;100368.23;;;15.43;72.50
77450;BME280;66536;53.150;18.172;2023-07-24T02:34:52;100367.85;;;15.42;72.64
77450;BME280;66536;53.150;18.172;2023-07-24T02:37:19;100370.14;;;15.41;72.99
77450;BME280;66536;53.150;18.172;2023-07-24T02:39:46;100369.10;;;15.40;73.04
77450;BME280;66536;53.150;18.172;2023-07-24T02:42:13;100364.20;;;15.39;73.30
77450;BME280;66536;53.150;18.172;2023-07-24T02:44:39;100366.52;;;15.39;73.35
77450;BME280;66536;53.150;18.172;2023-07-24T02:47:07;100359.34;;;15.39;73.40
77450;BME280;66536;53.150;18.172;2023-07-24T02:49:34;100357.23;;;15.40;73.37
77450;BME280;66536;53.150;18.172;2023-07-24T02:52:01;100357.98;;;15.42;73.48
77450;BME280;66536;53.150;18.172;2023-07-24T02:54:28;100358.54;;;15.44;73.74
77450;BME280;66536;53.150;18.172;2023-07-24T02:56:54;100362.27;;;15.47;73.94
77450;BME280;66536;53.150;18.172;2023-07-24T02:59:22;100361.15;;;15.50;73.87
77450;BME280;66536;53.150;18.172;2023-07-24T03:01:50;100358.73;;;15.54;74.13
77450;BME280;66536;53.150;18.172;2023-07-24T03:04:17;100359.36;;;15.58;74.17
77450;BME280;66536;53.150;18.172;2023-07-24T03:06:44;100359.52;;;15.64;74.02
77450;BME280;66536;53.150;18.172;2023-07-24T03:09:11;100354.59;;;15.68;73.79
77450;BME280;66536;53.150;18.172;2023-07-24T03:11:40;100353.18;;;15.73;73.66
77450;BME280;66536;53.150;18.172;2023-07-24T03:14:07;100354.78;;;15.77;73.32
77450;BME280;66536;53.150;18.172;2023-07-24T03:16:34;100352.32;;;15.81;73.10
77450;BME280;66536;53.150;18.172;2023-07-24T03:19:02;100344.46;;;15.85;72.70
77450;BME280;66536;53.150;18.172;2023-07-24T03:21:28;100344.20;;;15.90;72.64
77450;BME280;66536;53.150;18.172;2023-07-24T03:24:16;100344.34;;;15.96;72.40
77450;BME280;66536;53.150;18.172;2023-07-24T03:26:43;100352.67;;;16.00;71.97
77450;BME280;66536;53.150;18.172;2023-07-24T03:29:10;100356.64;;;16.04;71.61
77450;BME280;66536;53.150;18.172;2023-07-24T03:31:36;100356.92;;;16.08;71.40
77450;BME280;66536;53.150;18.172;2023-07-24T03:34:03;100364.37;;;16.12;71.13
77450;BME280;66536;53.150;18.172;2023-07-24T03:36:30;100363.77;;;16.16;70.52
77450;BME280;66536;53.150;18.172;2023-07-24T03:38:56;100356.27;;;16.20;70.25
77450;BME280;66536;53.150;18.172;2023-07-24T03:41:23;100356.05;;;16.25;70.05
77450;BME280;66536;53.150;18.172;2023-07-24T03:43:50;100356.65;;;16.29;69.89
77450;BME280;66536;53.150;18.172;2023-07-24T03:46:16;100361.54;;;16.33;69.61
77450;BME280;66536;53.150;18.172;2023-07-24T03:48:43;100357.23;;;16.37;69.44
77450;BME280;66536;53.150;18.172;2023-07-24T03:51:11;100360.70;;;16.41;69.23
77450;BME280;66536;53.150;18.172;2023-07-24T03:53:38;100359.09;;;16.46;69.01
77450;BME280;66536;53.150;18.172;2023-07-24T03:56:04;100359.88;;;16.52;68.58
77450;BME280;66536;53.150;18.172;2023-07-24T03:58:31;100354.67;;;16.58;68.38
77450;BME280;66536;53.150;18.172;2023-07-24T04:00:58;100350.83;;;16.65;68.13
77450;BME280;66536;53.150;18.172;2023-07-24T04:03:24;100358.42;;;16.73;67.91
77450;BME280;66536;53.150;18.172;2023-07-24T04:05:52;100361.54;;;16.82;67.58
77450;BME280;66536;53.150;18.172;2023-07-24T04:08:19;100364.83;;;16.92;67.36
77450;BME280;66536;53.150;18.172;2023-07-24T04:11:05;100363.51;;;17.01;67.30
77450;BME280;66536;53.150;18.172;2023-07-24T04:13:32;100365.31;;;17.10;67.01
77450;BME280;66536;53.150;18.172;2023-07-24T04:15:59;100365.41;;;17.20;66.71
77450;BME280;66536;53.150;18.172;2023-07-24T04:18:29;100367.89;;;17.29;66.40
77450;BME280;66536;53.150;18.172;2023-07-24T04:20:57;100364.77;;;17.36;66.25
77450;BME280;66536;53.150;18.172;2023-07-24T04:23:23;100363.02;;;17.43;66.00
77450;BME280;66536;53.150;18.172;2023-07-24T04:25:50;100363.74;;;17.50;65.99
77450;BME280;66536;53.150;18.172;2023-07-24T04:28:17;100367.31;;;17.56;65.85
77450;BME280;66536;53.150;18.172;2023-07-24T04:30:43;100366.52;;;17.61;65.62
77450;BME280;66536;53.150;18.172;2023-07-24T04:33:10;100365.77;;;17.67;65.47
77450;BME280;66536;53.150;18.172;2023-07-24T04:35:37;100363.73;;;17.74;65.47
77450;BME280;66536;53.150;18.172;2023-07-24T04:38:03;100356.77;;;17.83;65.43
77450;BME280;66536;53.150;18.172;2023-07-24T04:40:30;100362.43;;;17.92;65.17
77450;BME280;66536;53.150;18.172;2023-07-24T04:42:58;100367.30;;;18.03;64.94
77450;BME280;66536;53.150;18.172;2023-07-24T04:45:26;100359.85;;;18.14;64.68
77450;BME280;66536;53.150;18.172;2023-07-24T04:47:53;100361.47;;;18.23;64.57
77450;BME280;66536;53.150;18.172;2023-07-24T04:50:22;100360.67;;;18.29;64.25
77450;BME280;66536;53.150;18.172;2023-07-24T04:52:50;100357.27;;;18.34;63.92
77450;BME280;66536;53.150;18.172;2023-07-24T04:55:16;100365.92;;;18.35;63.92
77450;BME280;66536;53.150;18.172;2023-07-24T04:57:43;100367.48;;;18.35;64.07
77450;BME280;66536;53.150;18.172;2023-07-24T05:00:10;100366.80;;;18.37;64.14
77450;BME280;66536;53.150;18.172;2023-07-24T05:02:38;100363.71;;;18.41;64.15
77450;BME280;66536;53.150;18.172;2023-07-24T05:05:05;100366.45;;;18.44;64.07
77450;BME280;66536;53.150;18.172;2023-07-24T05:07:32;100368.55;;;18.47;64.02
77450;BME280;66536;53.150;18.172;2023-07-24T05:09:59;100375.52;;;18.49;64.36
77450;BME280;66536;53.150;18.172;2023-07-24T05:12:25;100375.08;;;18.54;64.23
77450;BME280;66536;53.150;18.172;2023-07-24T05:14:53;100379.63;;;18.60;64.08
77450;BME280;66536;53.150;18.172;2023-07-24T05:17:20;100376.11;;;18.65;64.23
77450;BME280;66536;53.150;18.172;2023-07-24T05:19:46;100373.83;;;18.73;64.06
77450;BME280;66536;53.150;18.172;2023-07-24T05:22:14;100370.86;;;18.87;63.85
77450;BME280;66536;53.150;18.172;2023-07-24T05:24:41;100376.77;;;19.01;63.50
77450;BME280;66536;53.150;18.172;2023-07-24T05:27:08;100375.73;;;19.09;63.26
77450;BME280;66536;53.150;18.172;2023-07-24T05:29:36;100376.98;;;19.15;63.16
77450;BME280;66536;53.150;18.172;2023-07-24T05:32:03;100370.15;;;19.16;63.26
77450;BME280;66536;53.150;18.172;2023-07-24T05:34:32;100375.55;;;19.15;63.13
77450;BME280;66536;53.150;18.172;2023-07-24T05:37:00;100370.08;;;19.19;63.08
77450;BME280;66536;53.150;18.172;2023-07-24T05:39:29;100368.48;;;19.26;63.10
77450;BME280;66536;53.150;18.172;2023-07-24T05:41:56;100367.23;;;19.38;63.10
77450;BME280;66536;53.150;18.172;2023-07-24T05:44:22;100371.80;;;19.55;62.76
77450;BME280;66536;53.150;18.172;2023-07-24T05:46:49;100369.39;;;19.69;62.51
77450;BME280;66536;53.150;18.172;2023-07-24T05:49:16;100371.69;;;19.81;62.65
77450;BME280;66536;53.150;18.172;2023-07-24T05:51:43;100376.14;;;19.87;62.88
77450;BME280;66536;53.150;18.172;2023-07-24T05:54:10;100374.71;;;19.89;62.88
77450;BME280;66536;53.150;18.172;2023-07-24T06:03:54;100379.86;;;19.83;63.88
77450;BME280;66536;53.150;18.172;2023-07-24T06:06:21;100381.05;;;19.79;64.28
77450;BME280;66536;53.150;18.172;2023-07-24T06:09:07;100383.14;;;19.72;64.48
77450;BME280;66536;53.150;18.172;2023-07-24T06:11:34;100389.02;;;19.65;64.88
77450;BME280;66536;53.150;18.172;2023-07-24T06:14:00;100396.95;;;19.66;65.11
77450;BME280;66536;53.150;18.172;2023-07-24T06:16:29;100398.11;;;19.72;65.06
77450;BME280;66536;53.150;18.172;2023-07-24T06:18:57;100396.66;;;19.77;65.51
77450;BME280;66536;53.150;18.172;2023-07-24T06:28:45;100387.70;;;19.74;66.78
77450;BME280;66536;53.150;18.172;2023-07-24T06:31:12;100388.67;;;19.76;66.88
77450;BME280;66536;53.150;18.172;2023-07-24T06:33:39;100379.71;;;19.81;67.08
77450;BME280;66536;53.150;18.172;2023-07-24T06:36:09;100387.43;;;19.89;67.25
77450;BME280;66536;53.150;18.172;2023-07-24T06:38:38;100381.40;;;20.01;67.31
77450;BME280;66536;53.150;18.172;2023-07-24T06:41:05;100382.36;;;20.22;67.06
77450;BME280;66536;53.150;18.172;2023-07-24T06:43:32;100379.23;;;20.47;66.98
77450;BME280;66536;53.150;18.172;2023-07-24T06:45:59;100372.73;;;20.79;66.40
77450;BME280;66536;53.150;18.172;2023-07-24T06:48:26;100364.19;;;21.09;65.75
77450;BME280;66536;53.150;18.172;2023-07-24T06:50:52;100351.86;;;21.22;65.35
77450;BME280;66536;53.150;18.172;2023-07-24T06:53:20;100340.91;;;21.34;65.80
77450;BME280;66536;53.150;18.172;2023-07-24T06:55:47;100330.14;;;21.50;65.73
77450;BME280;66536;53.150;18.172;2023-07-24T06:58:14;100328.30;;;21.67;65.51
77450;BME280;66536;53.150;18.172;2023-07-24T07:00:41;100334.16;;;21.87;65.09
77450;BME280;66536;53.150;18.172;2023-07-24T07:03:28;100333.54;;;22.09;64.48
77450;BME280;66536;53.150;18.172;2023-07-24T07:05:59;100324.64;;;22.18;64.11
77450;BME280;66536;53.150;18.172;2023-07-24T07:08:26;100322.19;;;22.21;63.90
77450;BME280;66536;53.150;18.172;2023-07-24T07:11:00;100314.05;;;22.25;64.00
77450;BME280;66536;53.150;18.172;2023-07-24T07:13:27;100311.30;;;22.39;63.88
77450;BME280;66536;53.150;18.172;2023-07-24T07:15:55;100314.23;;;22.60;63.35
77450;BME280;66536;53.150;18.172;2023-07-24T07:18:22;100317.20;;;22.84;63.08
77450;BME280;66536;53.150;18.172;2023-07-24T07:20:52;100319.36;;;23.03;62.62
77450;BME280;66536;53.150;18.172;2023-07-24T07:23:20;100319.52;;;23.33;62.34
77450;BME280;66536;53.150;18.172;2023-07-24T07:25:47;100319.25;;;23.65;61.63
77450;BME280;66536;53.150;18.172;2023-07-24T07:28:16;100316.69;;;23.89;60.75
77450;BME280;66536;53.150;18.172;2023-07-24T07:30:43;100315.46;;;24.12;60.42
77450;BME280;66536;53.150;18.172;2023-07-24T07:33:10;100316.65;;;24.25;59.85
77450;BME280;66536;53.150;18.172;2023-07-24T07:35:37;100312.91;;;24.18;59.84
77450;BME280;66536;53.150;18.172;2023-07-24T07:38:05;100307.77;;;24.02;60.27
77450;BME280;66536;53.150;18.172;2023-07-24T07:40:31;100305.34;;;23.97;60.54
77450;BME280;66536;53.150;18.172;2023-07-24T07:42:58;100305.02;;;23.98;60.18
77450;BME280;66536;53.150;18.172;2023-07-24T07:45:25;100306.37;;;23.96;60.04
77450;BME280;66536;53.150;18.172;2023-07-24T07:47:51;100298.80;;;23.90;60.47
77450;BME280;66536;53.150;18.172;2023-07-24T07:50:19;100296.24;;;23.88;60.35
77450;BME280;66536;53.150;18.172;2023-07-24T07:52:51;100293.02;;;23.93;60.21
77450;BME280;66536;53.150;18.172;2023-07-24T07:55:18;100292.11;;;23.98;60.14
77450;BME280;66536;53.150;18.172;2023-07-24T07:57:45;100290.45;;;24.10;60.30
77450;BME280;66536;53.150;18.172;2023-07-24T08:00:14;100284.11;;;24.26;59.85
77450;BME280;66536;53.150;18.172;2023-07-24T08:02:42;100280.15;;;24.42;59.49
77450;BME280;66536;53.150;18.172;2023-07-24T08:05:11;100276.98;;;24.73;59.51
77450;BME280;66536;53.150;18.172;2023-07-24T08:07:37;100271.13;;;24.94;59.13
77450;BME280;66536;53.150;18.172;2023-07-24T08:10:05;100271.33;;;24.97;58.85
77450;BME280;66536;53.150;18.172;2023-07-24T08:12:32;100269.57;;;24.83;58.38
77450;BME280;66536;53.150;18.172;2023-07-24T08:14:59;100265.91;;;24.74;57.78
77450;BME280;66536;53.150;18.172;2023-07-24T08:17:26;100264.76;;;24.77;58.43
77450;BME280;66536;53.150;18.172;2023-07-24T08:19:53;100261.26;;;24.90;58.18
77450;BME280;66536;53.150;18.172;2023-07-24T08:22:19;100259.69;;;25.10;57.72
77450;BME280;66536;53.150;18.172;2023-07-24T08:24:46;100261.48;;;25.14;56.66
77450;BME280;66536;53.150;18.172;2023-07-24T08:27:13;100260.54;;;25.16;56.55
77450;BME280;66536;53.150;18.172;2023-07-24T08:29:40;100254.45;;;25.40;55.56
77450;BME280;66536;53.150;18.172;2023-07-24T08:32:07;100252.97;;;25.56;55.15
77450;BME280;66536;53.150;18.172;2023-07-24T08:34:33;100249.80;;;25.64;54.87
77450;BME280;66536;53.150;18.172;2023-07-24T08:37:03;100245.19;;;25.75;54.13
77450;BME280;66536;53.150;18.172;2023-07-24T08:39:30;100233.75;;;25.88;54.05
77450;BME280;66536;53.150;18.172;2023-07-24T08:41:57;100225.90;;;26.05;53.54
77450;BME280;66536;53.150;18.172;2023-07-24T08:44:25;100224.94;;;26.27;53.05
77450;BME280;66536;53.150;18.172;2023-07-24T08:46:52;100217.08;;;26.43;51.91
77450;BME280;66536;53.150;18.172;2023-07-24T08:49:19;100216.32;;;26.44;51.67
77450;BME280;66536;53.150;18.172;2023-07-24T08:51:48;100209.52;;;26.46;50.11
77450;BME280;66536;53.150;18.172;2023-07-24T08:54:16;100214.88;;;26.45;49.89
77450;BME280;66536;53.150;18.172;2023-07-24T08:56:45;100211.66;;;26.43;49.27
77450;BME280;66536;53.150;18.172;2023-07-24T08:59:16;100209.88;;;26.40;49.08
77450;BME280;66536;53.150;18.172;2023-07-24T09:01:43;100210.30;;;26.43;49.02
77450;BME280;66536;53.150;18.172;2023-07-24T09:07:59;100205.84;;;26.71;48.12
77450;BME280;66536;53.150;18.172;2023-07-24T09:10:26;100203.77;;;26.93;47.85
77450;BME280;66536;53.150;18.172;2023-07-24T09:13:13;100204.66;;;27.24;47.18
77450;BME280;66536;53.150;18.172;2023-07-24T09:15:43;100198.64;;;27.40;46.21
77450;BME280;66536;53.150;18.172;2023-07-24T09:18:10;100196.47;;;27.24;46.53
77450;BME280;66536;53.150;18.172;2023-07-24T09:20:41;100199.33;;;27.23;46.35
77450;BME280;66536;53.150;18.172;2023-07-24T09:23:11;100193.63;;;27.27;46.49
77450;BME280;66536;53.150;18.172;2023-07-24T09:25:40;100187.96;;;27.45;46.32
77450;BME280;66536;53.150;18.172;2023-07-24T09:28:12;100188.83;;;27.71;45.93
77450;BME280;66536;53.150;18.172;2023-07-24T09:30:41;100183.89;;;27.90;45.59
77450;BME280;66536;53.150;18.172;2023-07-24T09:33:09;100182.58;;;28.07;45.06
77450;BME280;66536;53.150;18.172;2023-07-24T09:35:36;100180.21;;;28.08;43.97
77450;BME280;66536;53.150;18.172;2023-07-24T09:38:07;100176.55;;;28.01;44.13
77450;BME280;66536;53.150;18.172;2023-07-24T09:40:43;100173.33;;;28.03;43.18
77450;BME280;66536;53.150;18.172;2023-07-24T09:43:21;100171.27;;;28.17;43.05
77450;BME280;66536;53.150;18.172;2023-07-24T09:45:50;100162.11;;;28.31;42.42
77450;BME280;66536;53.150;18.172;2023-07-24T09:48:18;100161.44;;;28.32;42.35
77450;BME280;66536;53.150;18.172;2023-07-24T09:50:47;100159.87;;;28.25;41.47
77450;BME280;66536;53.150;18.172;2023-07-24T09:53:38;100159.54;;;28.00;41.63
77450;BME280;66536;53.150;18.172;2023-07-24T09:56:08;100151.94;;;27.80;41.18
77450;BME280;66536;53.150;18.172;2023-07-24T09:58:37;100156.31;;;27.72;41.47
77450;BME280;66536;53.150;18.172;2023-07-24T10:01:06;100159.28;;;27.70;41.42
77450;BME280;66536;53.150;18.172;2023-07-24T10:03:35;100150.94;;;27.71;41.17
77450;BME280;66536;53.150;18.172;2023-07-24T10:06:03;100155.85;;;27.76;40.89
77450;BME280;66536;53.150;18.172;2023-07-24T10:08:30;100145.82;;;27.87;40.63
77450;BME280;66536;53.150;18.172;2023-07-24T10:10:58;100144.23;;;27.99;40.90
77450;BME280;66536;53.150;18.172;2023-07-24T10:13:28;100129.98;;;28.31;40.56
77450;BME280;66536;53.150;18.172;2023-07-24T10:15:56;100129.22;;;28.62;39.81
77450;BME280;66536;53.150;18.172;2023-07-24T10:18:28;100128.02;;;28.82;39.72
77450;BME280;66536;53.150;18.172;2023-07-24T10:21:01;100125.52;;;28.97;39.41
77450;BME280;66536;53.150;18.172;2023-07-24T10:23:28;100118.67;;;29.03;38.97
77450;BME280;66536;53.150;18.172;2023-07-24T10:26:02;100115.76;;;29.08;39.14
77450;BME280;66536;53.150;18.172;2023-07-24T10:28:33;100103.77;;;29.21;38.78
77450;BME280;66536;53.150;18.172;2023-07-24T10:31:22;100101.45;;;29.23;38.78
77450;BME280;66536;53.150;18.172;2023-07-24T10:33:51;100090.58;;;29.42;38.83
77450;BME280;66536;53.150;18.172;2023-07-24T10:36:20;100089.35;;;29.68;38.61
77450;BME280;66536;53.150;18.172;2023-07-24T10:38:53;100078.77;;;29.79;37.26
77450;BME280;66536;53.150;18.172;2023-07-24T10:41:21;100082.80;;;29.71;36.63
77450;BME280;66536;53.150;18.172;2023-07-24T10:43:49;100086.69;;;29.78;37.05
77450;BME280;66536;53.150;18.172;2023-07-24T10:46:18;100086.05;;;29.95;36.33
77450;BME280;66536;53.150;18.172;2023-07-24T10:48:49;100079.29;;;29.95;36.36
77450;BME280;66536;53.150;18.172;2023-07-24T10:51:16;100077.73;;;30.01;36.58
77450;BME280;66536;53.150;18.172;2023-07-24T10:53:46;100074.77;;;30.13;35.82
77450;BME280;66536;53.150;18.172;2023-07-24T10:56:14;100071.16;;;30.37;35.37
77450;BME280;66536;53.150;18.172;2023-07-24T10:58:42;100074.75;;;30.53;35.16
77450;BME280;66536;53.150;18.172;2023-07-24T11:01:09;100083.88;;;30.60;35.44
77450;BME280;66536;53.150;18.172;2023-07-24T11:03:39;100077.94;;;30.73;34.99
77450;BME280;66536;53.150;18.172;2023-07-24T11:06:19;100076.05;;;30.71;34.52
77450;BME280;66536;53.150;18.172;2023-07-24T11:08:55;100074.10;;;30.60;34.47
77450;BME280;66536;53.150;18.172;2023-07-24T11:11:36;100064.55;;;30.59;34.41
77450;BME280;66536;53.150;18.172;2023-07-24T11:14:03;100061.73;;;30.67;33.63
77450;BME280;66536;53.150;18.172;2023-07-24T11:16:30;100059.27;;;30.63;34.07
77450;BME280;66536;53.150;18.172;2023-07-24T11:18:57;100055.15;;;30.67;34.17
77450;BME280;66536;53.150;18.172;2023-07-24T11:21:25;100054.85;;;30.63;34.26
77450;BME280;66536;53.150;18.172;2023-07-24T11:23:53;100053.80;;;30.51;34.03
77450;BME280;66536;53.150;18.172;2023-07-24T11:26:22;100057.62;;;30.39;34.72
77450;BME280;66536;53.150;18.172;2023-07-24T11:28:50;100057.54;;;30.35;34.56
77450;BME280;66536;53.150;18.172;2023-07-24T11:31:18;100054.88;;;30.44;34.43
77450;BME280;66536;53.150;18.172;2023-07-24T11:33:47;100056.57;;;30.74;34.00
77450;BME280;66536;53.150;18.172;2023-07-24T11:36:16;100056.63;;;31.07;33.52
77450;BME280;66536;53.150;18.172;2023-07-24T11:38:45;100056.20;;;31.14;33.14
77450;BME280;66536;53.150;18.172;2023-07-24T11:41:12;100056.64;;;31.13;33.70
77450;BME280;66536;53.150;18.172;2023-07-24T11:43:46;100051.91;;;31.09;33.15
77450;BME280;66536;53.150;18.172;2023-07-24T11:46:26;100053.45;;;30.91;33.60
77450;BME280;66536;53.150;18.172;2023-07-24T11:48:53;100057.75;;;30.80;33.96
77450;BME280;66536;53.150;18.172;2023-07-24T11:51:23;100056.23;;;30.63;33.88
77450;BME280;66536;53.150;18.172;2023-07-24T11:53:52;100050.20;;;30.60;34.19
77450;BME280;66536;53.150;18.172;2023-07-24T11:56:19;100044.05;;;30.78;33.83
77450;BME280;66536;53.150;18.172;2023-07-24T11:58:46;100039.61;;;31.04;33.44
77450;BME280;66536;53.150;18.172;2023-07-24T12:01:14;100033.92;;;31.27;33.30
77450;BME280;66536;53.150;18.172;2023-07-24T12:03:42;100031.72;;;31.36;32.76
77450;BME280;66536;53.150;18.172;2023-07-24T12:06:14;100030.88;;;31.45;32.05
77450;BME280;66536;53.150;18.172;2023-07-24T12:08:42;100018.26;;;31.74;31.78
77450;BME280;66536;53.150;18.172;2023-07-24T12:11:18;100025.18;;;31.93;31.65
77450;BME280;66536;53.150;18.172;2023-07-24T12:13:46;100014.45;;;32.03;31.38
77450;BME280;66536;53.150;18.172;2023-07-24T12:16:12;100018.14;;;32.12;31.14
77450;BME280;66536;53.150;18.172;2023-07-24T12:18:39;100013.14;;;32.17;30.44
77450;BME280;66536;53.150;18.172;2023-07-24T12:21:09;100017.08;;;32.13;30.49
77450;BME280;66536;53.150;18.172;2023-07-24T12:23:37;100018.04;;;32.03;30.41
77450;BME280;66536;53.150;18.172;2023-07-24T12:26:04;100013.39;;;31.87;30.16
77450;BME280;66536;53.150;18.172;2023-07-24T12:28:31;100011.00;;;31.57;30.40
77450;BME280;66536;53.150;18.172;2023-07-24T12:30:58;100009.43;;;31.24;30.79
77450;BME280;66536;53.150;18.172;2023-07-24T12:33:25;100012.45;;;30.96;31.14
77450;BME280;66536;53.150;18.172;2023-07-24T12:35:52;100001.13;;;30.79;31.31
77450;BME280;66536;53.150;18.172;2023-07-24T12:38:19;99998.65;;;30.88;31.21
77450;BME280;66536;53.150;18.172;2023-07-24T12:40:47;99994.99;;;31.04;31.21
77450;BME280;66536;53.150;18.172;2023-07-24T12:43:15;99990.89;;;31.16;31.20
77450;BME280;66536;53.150;18.172;2023-07-24T12:45:41;99983.84;;;31.24;31.14
77450;BME280;66536;53.150;18.172;2023-07-24T12:48:08;99984.76;;;31.29;30.83
77450;BME280;66536;53.150;18.172;2023-07-24T12:50:35;99981.81;;;31.21;30.86
77450;BME280;66536;53.150;18.172;2023-07-24T12:53:01;99982.04;;;31.06;30.94
77450;BME280;66536;53.150;18.172;2023-07-24T12:55:28;99980.91;;;31.12;31.16
77450;BME280;66536;53.150;18.172;2023-07-24T12:57:56;99973.89;;;31.28;30.73
77450;BME280;66536;53.150;18.172;2023-07-24T13:00:23;99969.63;;;31.34;30.42
77450;BME280;66536;53.150;18.172;2023-07-24T13:02:50;99970.31;;;31.38;30.42
77450;BME280;66536;53.150;18.172;2023-07-24T13:05:16;99963.44;;;31.39;30.45